Time;durP1;ratioP1;P1;durP2;ratioP2;P2;SDS_P1;SDS_P2;PMS_P1;PMS_P2;Temp;Humidity;BMP_temperature;BMP_pressure;BME280_temperature;BME280_humidity;BME280_pressure;Samples;Min_cycle;Max_cycle;Signal;HPM_P1;HPM_P2
2021/03/08 00:02:18;;;;;;;13.02;3.47;;;;;;;;;;6267888;22;20008;-85
2021/03/08 00:04:45;;;;;;;19.90;3.60;;;;;;;;;;6293565;22;20091;-85
2021/03/08 00:07:12;;;;;;;16.88;3.72;;;;;;;;;;6268591;22;20015;-85
2021/03/08 00:09:41;;;;;;;24.88;3.88;;;;;;;;;;6293212;22;20082;-85
2021/03/08 00:12:08;;;;;;;20.45;4.10;;;;;;;;;;6272788;22;20069;-85
2021/03/08 00:14:36;;;;;;;18.35;3.90;;;;;;;;;;6273084;22;20023;-85
2021/03/08 00:17:04;;;;;;;18.60;3.85;;;;;;;;;;6324554;22;20015;-84
2021/03/08 00:19:33;;;;;;;19.25;3.72;;;;;;;;;;6323831;22;20057;-85
2021/03/08 00:22:01;;;;;;;19.77;3.67;;;;;;;;;;6324119;22;20014;-85
2021/03/08 00:24:29;;;;;;;15.85;3.70;;;;;;;;;;6298515;22;20031;-85
2021/03/08 00:26:56;;;;;;;14.45;3.90;;;;;;;;;;6324479;22;20022;-85
2021/03/08 00:29:24;;;;;;;19.08;3.95;;;;;;;;;;6298580;22;20013;-86
2021/03/08 00:31:52;;;;;;;13.07;3.75;;;;;;;;;;6299321;22;20014;-85
2021/03/08 00:34:19;;;;;;;16.10;3.75;;;;;;;;;;6350789;22;20022;-86
2021/03/08 00:36:46;;;;;;;16.13;3.70;;;;;;;;;;6299043;22;20069;-85
2021/03/08 00:39:13;;;;;;;15.25;3.15;;;;;;;;;;6299336;22;20058;-85
2021/03/08 00:41:41;;;;;;;19.02;3.25;;;;;;;;;;6298571;22;20506;-85
2021/03/08 00:44:09;;;;;;;17.90;3.83;;;;;;;;;;6273142;22;20321;-85
2021/03/08 00:46:36;;;;;;;16.52;2.83;;;;;;;;;;6297828;22;20332;-85
2021/03/08 00:49:04;;;;;;;21.27;4.03;;;;;;;;;;6323895;22;20011;-85
2021/03/08 00:51:31;;;;;;;13.57;2.92;;;;;;;;;;6323476;22;20038;-85
2021/03/08 00:53:58;;;;;;;19.30;3.15;;;;;;;;;;6273132;22;20011;-85
2021/03/08 00:56:25;;;;;;;15.85;3.10;;;;;;;;;;6298204;22;20008;-86
2021/03/08 00:58:53;;;;;;;20.55;2.90;;;;;;;;;;6324031;22;20087;-86
2021/03/08 01:01:20;;;;;;;14.20;3.03;;;;;;;;;;6298464;22;20081;-85
2021/03/08 01:03:47;;;;;;;14.38;2.65;;;;;;;;;;6323394;22;20015;-85
2021/03/08 01:06:15;;;;;;;14.90;3.13;;;;;;;;;;6298649;22;20344;-85
2021/03/08 01:08:42;;;;;;;15.40;2.95;;;;;;;;;;6298185;22;20007;-85
2021/03/08 01:11:09;;;;;;;13.52;2.40;;;;;;;;;;6298315;22;20007;-85
2021/03/08 01:13:37;;;;;;;12.25;2.58;;;;;;;;;;6350311;22;20069;-86
2021/03/08 01:16:04;;;;;;;15.68;2.58;;;;;;;;;;6298404;22;20447;-85
2021/03/08 01:18:31;;;;;;;17.60;2.78;;;;;;;;;;6323201;22;20431;-86
2021/03/08 01:20:59;;;;;;;13.32;2.55;;;;;;;;;;6298922;22;20019;-85
2021/03/08 01:23:26;;;;;;;12.80;2.40;;;;;;;;;;6323849;22;20014;-85
2021/03/08 01:25:53;;;;;;;16.80;3.10;;;;;;;;;;6272686;22;20129;-86
2021/03/08 01:28:20;;;;;;;18.35;2.78;;;;;;;;;;6298485;22;20026;-86
2021/03/08 01:30:48;;;;;;;21.35;3.30;;;;;;;;;;6323159;22;20046;-86
2021/03/08 01:33:15;;;;;;;19.63;2.92;;;;;;;;;;6298333;22;20427;-86
2021/03/08 01:35:42;;;;;;;26.90;3.17;;;;;;;;;;6323418;22;20011;-86
2021/03/08 01:38:10;;;;;;;17.50;3.58;;;;;;;;;;6323383;22;20010;-85
2021/03/08 01:40:39;;;;;;;21.83;3.55;;;;;;;;;;6323025;22;20022;-86
2021/03/08 01:43:08;;;;;;;27.98;3.80;;;;;;;;;;6323436;22;20038;-86
2021/03/08 01:45:35;;;;;;;18.17;2.72;;;;;;;;;;6322932;22;20007;-86
2021/03/08 01:48:03;;;;;;;18.60;2.88;;;;;;;;;;6350654;22;20011;-85
2021/03/08 01:50:30;;;;;;;20.00;2.75;;;;;;;;;;6324120;22;20012;-85
2021/03/08 01:52:58;;;;;;;19.45;3.30;;;;;;;;;;6323691;22;20017;-86
2021/03/08 01:55:26;;;;;;;18.77;2.75;;;;;;;;;;6323515;22;20331;-86
2021/03/08 01:57:53;;;;;;;21.05;2.60;;;;;;;;;;6323166;22;20007;-86
2021/03/08 02:00:21;;;;;;;25.23;2.97;;;;;;;;;;6350943;22;20007;-86
2021/03/08 02:02:49;;;;;;;22.63;2.97;;;;;;;;;;6323351;22;20014;-86
2021/03/08 02:05:17;;;;;;;19.70;2.60;;;;;;;;;;6350933;22;20011;-86
2021/03/08 02:07:45;;;;;;;21.52;3.10;;;;;;;;;;6322758;22;20046;-86
2021/03/08 02:10:15;;;;;;;13.88;2.90;;;;;;;;;;6323361;22;20086;-86
2021/03/08 02:12:49;;;;;;;15.25;2.75;;;;;;;;;;6322542;22;20012;-86
2021/03/08 02:15:17;;;;;;;19.30;2.78;;;;;;;;;;6333887;22;20440;-86
2021/03/08 02:18:04;;;;;;;23.30;3.42;;;;;;;;;;6297197;22;20011;-87
2021/03/08 02:20:50;;;;;;;20.25;2.65;;;;;;;;;;6323708;22;20022;-86
2021/03/08 02:23:23;;;;;;;14.43;2.45;;;;;;;;;;6324918;22;20157;-86
2021/03/08 02:26:09;;;;;;;22.35;2.42;;;;;;;;;;6325148;22;20086;-86
2021/03/08 02:28:46;;;;;;;16.05;2.60;;;;;;;;;;6325102;22;20019;-87
2021/03/08 02:31:13;;;;;;;16.52;2.78;;;;;;;;;;6325753;22;20011;-86
2021/03/08 02:33:41;;;;;;;24.35;3.28;;;;;;;;;;6299147;22;20011;-87
2021/03/08 02:36:09;;;;;;;18.88;2.83;;;;;;;;;;6300241;22;20011;-86
2021/03/08 02:38:40;;;;;;;16.90;3.30;;;;;;;;;;6300102;22;20049;-86
2021/03/08 02:41:16;;;;;;;20.85;2.53;;;;;;;;;;6335989;22;20018;-86
2021/03/08 02:43:50;;;;;;;17.40;2.85;;;;;;;;;;6324784;22;20039;-86
2021/03/08 02:46:28;;;;;;;13.05;2.33;;;;;;;;;;6325216;22;20403;-86
2021/03/08 02:48:56;;;;;;;13.32;2.70;;;;;;;;;;6324639;22;20019;-86
2021/03/08 02:51:25;;;;;;;14.40;2.72;;;;;;;;;;6325231;22;20014;-86
2021/03/08 02:53:55;;;;;;;19.02;2.92;;;;;;;;;;6324750;22;20015;-86
2021/03/08 02:56:24;;;;;;;13.93;2.55;;;;;;;;;;6325269;22;20015;-86
2021/03/08 02:58:51;;;;;;;13.68;2.38;;;;;;;;;;6351876;22;20396;-86
2021/03/08 03:01:19;;;;;;;19.92;2.60;;;;;;;;;;6300090;22;20082;-86
2021/03/08 03:03:52;;;;;;;18.52;2.50;;;;;;;;;;6324906;22;20060;-85
2021/03/08 03:06:20;;;;;;;16.23;2.47;;;;;;;;;;6335650;22;20022;-86
2021/03/08 03:08:47;;;;;;;13.38;2.55;;;;;;;;;;6324854;22;20093;-86
2021/03/08 03:11:15;;;;;;;15.68;2.50;;;;;;;;;;6299553;22;20031;-86
2021/03/08 03:13:44;;;;;;;10.73;2.20;;;;;;;;;;6299697;22;20007;-85
2021/03/08 03:16:12;;;;;;;16.45;2.50;;;;;;;;;;6324961;22;20046;-86
2021/03/08 03:18:41;;;;;;;16.50;2.80;;;;;;;;;;6352480;22;20039;-86
2021/03/08 03:21:08;;;;;;;11.43;2.15;;;;;;;;;;6352331;22;20443;-86
2021/03/08 03:23:37;;;;;;;16.35;2.10;;;;;;;;;;6324894;22;20007;-86
2021/03/08 03:26:08;;;;;;;15.30;2.83;;;;;;;;;;6324341;22;20034;-86
2021/03/08 03:28:35;;;;;;;17.80;2.78;;;;;;;;;;6299811;22;20011;-86
2021/03/08 03:31:04;;;;;;;18.35;2.60;;;;;;;;;;6299230;22;20027;-86
2021/03/08 03:33:33;;;;;;;13.75;2.35;;;;;;;;;;6324571;22;20043;-86
2021/03/08 03:36:00;;;;;;;23.65;3.00;;;;;;;;;;6299033;22;20090;-86
2021/03/08 03:38:27;;;;;;;11.07;2.17;;;;;;;;;;6299904;22;20323;-86
2021/03/08 03:40:55;;;;;;;17.92;3.13;;;;;;;;;;6324463;22;20018;-86
2021/03/08 03:43:25;;;;;;;15.73;2.35;;;;;;;;;;6299073;22;20309;-86
2021/03/08 03:45:53;;;;;;;16.90;2.80;;;;;;;;;;6299196;22;20021;-86
2021/03/08 03:48:20;;;;;;;15.80;2.30;;;;;;;;;;6324919;22;20011;-86
2021/03/08 03:50:47;;;;;;;18.73;2.63;;;;;;;;;;6299100;22;20045;-86
2021/03/08 03:53:15;;;;;;;20.73;2.50;;;;;;;;;;6324340;22;20011;-86
2021/03/08 03:55:42;;;;;;;20.45;3.33;;;;;;;;;;6299274;22;20014;-86
2021/03/08 03:58:10;;;;;;;17.15;2.53;;;;;;;;;;6298970;22;20064;-86
2021/03/08 04:00:42;;;;;;;13.85;2.85;;;;;;;;;;6351909;22;20011;-86
2021/03/08 04:03:10;;;;;;;16.73;3.00;;;;;;;;;;6323867;22;20011;-86
2021/03/08 04:05:42;;;;;;;18.85;2.90;;;;;;;;;;6298583;22;20068;-86
2021/03/08 04:08:11;;;;;;;16.63;2.72;;;;;;;;;;6323919;22;20086;-86
2021/03/08 04:10:41;;;;;;;21.42;3.10;;;;;;;;;;6324633;22;20086;-86
2021/03/08 04:13:14;;;;;;;19.85;2.55;;;;;;;;;;6323720;22;20015;-86
2021/03/08 04:15:41;;;;;;;13.80;2.60;;;;;;;;;;6351521;22;20011;-86
2021/03/08 04:18:12;;;;;;;18.58;2.65;;;;;;;;;;6323850;22;20335;-86
2021/03/08 04:20:40;;;;;;;11.65;2.75;;;;;;;;;;6324342;22;20493;-86
2021/03/08 04:23:08;;;;;;;18.25;2.80;;;;;;;;;;6351006;22;20015;-86
2021/03/08 04:25:37;;;;;;;13.98;2.58;;;;;;;;;;6324168;22;20061;-86
2021/03/08 04:28:05;;;;;;;18.10;2.78;;;;;;;;;;6323957;22;20082;-86
2021/03/08 04:30:33;;;;;;;17.02;2.55;;;;;;;;;;6324357;22;20033;-86
2021/03/08 04:33:00;;;;;;;15.43;2.45;;;;;;;;;;6298261;22;20004;-86
2021/03/08 04:35:29;;;;;;;19.17;3.00;;;;;;;;;;6298815;22;20347;-86
2021/03/08 04:37:59;;;;;;;14.05;2.75;;;;;;;;;;6324029;22;20313;-87
2021/03/08 04:40:27;;;;;;;16.50;2.70;;;;;;;;;;6324103;22;20046;-86
2021/03/08 04:42:54;;;;;;;17.92;2.80;;;;;;;;;;6324073;22;20015;-86
2021/03/08 04:45:22;;;;;;;14.43;2.67;;;;;;;;;;6323275;22;20384;-86
2021/03/08 04:47:50;;;;;;;15.52;2.42;;;;;;;;;;6324442;22;20082;-86
2021/03/08 04:50:19;;;;;;;21.33;2.65;;;;;;;;;;6298445;22;20083;-86
2021/03/08 04:52:47;;;;;;;11.23;2.65;;;;;;;;;;6299041;22;20007;-86
2021/03/08 04:55:15;;;;;;;17.55;2.90;;;;;;;;;;6323664;22;20061;-86
2021/03/08 04:57:43;;;;;;;10.77;2.10;;;;;;;;;;6351129;22;20014;-86
2021/03/08 05:00:11;;;;;;;20.30;3.35;;;;;;;;;;6323501;22;20031;-86
2021/03/08 05:02:39;;;;;;;12.02;2.35;;;;;;;;;;6298908;22;20332;-86
2021/03/08 05:05:07;;;;;;;11.20;2.58;;;;;;;;;;6323408;22;20035;-86
2021/03/08 05:07:38;;;;;;;15.98;3.53;;;;;;;;;;6298631;22;20098;-86
2021/03/08 05:10:06;;;;;;;17.30;2.88;;;;;;;;;;6323438;22;20459;-86
2021/03/08 05:12:35;;;;;;;16.77;3.20;;;;;;;;;;6323587;22;20011;-86
2021/03/08 05:15:03;;;;;;;15.57;2.63;;;;;;;;;;6323478;22;20026;-87
2021/03/08 05:17:31;;;;;;;14.70;2.67;;;;;;;;;;6323912;22;20482;-86
2021/03/08 05:20:00;;;;;;;21.15;2.50;;;;;;;;;;6323795;22;20491;-86
2021/03/08 05:22:27;;;;;;;20.05;3.00;;;;;;;;;;6323158;22;20022;-86
2021/03/08 05:24:55;;;;;;;15.50;2.78;;;;;;;;;;6323455;22;20014;-86
2021/03/08 05:27:22;;;;;;;19.48;2.85;;;;;;;;;;6298107;22;20015;-86
2021/03/08 05:29:50;;;;;;;22.30;3.40;;;;;;;;;;6324179;22;20013;-86
2021/03/08 05:32:23;;;;;;;15.20;3.20;;;;;;;;;;6323424;22;20082;-86
2021/03/08 05:34:52;;;;;;;17.45;3.33;;;;;;;;;;6334210;22;20106;-86
2021/03/08 05:37:19;;;;;;;17.05;3.00;;;;;;;;;;6322979;22;20007;-86
2021/03/08 05:39:47;;;;;;;12.07;2.90;;;;;;;;;;6323449;22;20011;-86
2021/03/08 05:42:16;;;;;;;15.27;2.65;;;;;;;;;;6323209;22;20329;-86
2021/03/08 05:44:56;;;;;;;18.55;3.05;;;;;;;;;;6323299;22;20015;-86
2021/03/08 05:47:46;;;;;;;24.95;2.70;;;;;;;;;;6322767;22;20012;-86
2021/03/08 05:50:26;;;;;;;18.92;2.95;;;;;;;;;;6322940;22;20018;-86
2021/03/08 05:53:11;;;;;;;12.43;2.80;;;;;;;;;;6323716;22;20007;-86
2021/03/08 05:55:54;;;;;;;11.57;2.77;;;;;;;;;;6323479;22;20435;-86
2021/03/08 05:58:27;;;;;;;13.15;3.28;;;;;;;;;;6322523;22;20307;-86
2021/03/08 06:01:03;;;;;;;11.20;2.65;;;;;;;;;;6323973;22;20288;-86
2021/03/08 06:03:49;;;;;;;12.60;2.97;;;;;;;;;;6323001;22;20335;-86
2021/03/08 06:06:35;;;;;;;12.80;2.67;;;;;;;;;;6322430;22;20019;-86
2021/03/08 06:09:08;;;;;;;12.90;2.90;;;;;;;;;;6323431;22;20012;-86
2021/03/08 06:11:36;;;;;;;10.18;3.20;;;;;;;;;;6350139;22;20088;-86
2021/03/08 06:14:03;;;;;;;13.65;2.83;;;;;;;;;;6323296;22;20015;-86
2021/03/08 06:16:34;;;;;;;11.70;2.78;;;;;;;;;;6322956;22;20011;-86
2021/03/08 06:19:03;;;;;;;15.65;3.47;;;;;;;;;;6323381;22;20008;-86
2021/03/08 06:21:32;;;;;;;20.02;2.92;;;;;;;;;;6323270;22;20450;-86
2021/03/08 06:24:00;;;;;;;13.75;3.50;;;;;;;;;;6323236;22;20011;-86
2021/03/08 06:26:29;;;;;;;15.60;2.88;;;;;;;;;;6322859;22;20007;-86
2021/03/08 06:28:57;;;;;;;17.15;3.08;;;;;;;;;;6323299;22;20440;-86
2021/03/08 06:31:27;;;;;;;17.40;4.05;;;;;;;;;;6297526;22;20031;-86
2021/03/08 06:33:55;;;;;;;25.52;3.72;;;;;;;;;;6323256;22;20030;-86
2021/03/08 06:36:23;;;;;;;19.30;3.15;;;;;;;;;;6322902;22;20031;-86
2021/03/08 06:38:50;;;;;;;15.88;3.35;;;;;;;;;;6323892;22;20068;-86
2021/03/08 06:41:18;;;;;;;16.90;3.47;;;;;;;;;;6322938;22;20011;-86
2021/03/08 06:43:45;;;;;;;14.63;3.35;;;;;;;;;;6298307;22;20424;-86
2021/03/08 06:46:16;;;;;;;15.25;3.35;;;;;;;;;;6323149;22;20011;-86
2021/03/08 06:48:44;;;;;;;17.83;3.65;;;;;;;;;;6272416;22;20011;-86
2021/03/08 06:51:13;;;;;;;17.23;3.60;;;;;;;;;;6323468;22;20022;-86
2021/03/08 06:53:41;;;;;;;14.43;3.20;;;;;;;;;;6322507;22;20014;-86
2021/03/08 06:56:14;;;;;;;12.85;3.45;;;;;;;;;;6323405;22;20019;-86
2021/03/08 06:58:41;;;;;;;13.30;3.47;;;;;;;;;;6350357;22;20019;-86
2021/03/08 07:01:12;;;;;;;14.50;3.15;;;;;;;;;;6323311;22;20396;-86
2021/03/08 07:03:40;;;;;;;15.13;3.05;;;;;;;;;;6322599;22;20011;-86
2021/03/08 07:06:11;;;;;;;15.40;3.30;;;;;;;;;;6323275;22;20015;-86
2021/03/08 07:08:38;;;;;;;14.10;3.35;;;;;;;;;;6323297;22;20021;-86
2021/03/08 07:11:24;;;;;;;23.55;3.90;;;;;;;;;;6299770;22;20011;-86
2021/03/08 07:13:51;;;;;;;15.13;3.80;;;;;;;;;;6324761;22;20011;-86
2021/03/08 07:16:18;;;;;;;15.68;3.60;;;;;;;;;;6324981;22;20015;-86
2021/03/08 07:18:45;;;;;;;19.25;3.80;;;;;;;;;;6299346;22;20007;-86
2021/03/08 07:21:13;;;;;;;18.40;4.07;;;;;;;;;;6325284;22;20018;-86
2021/03/08 07:23:41;;;;;;;15.00;3.70;;;;;;;;;;6298755;22;20015;-86
2021/03/08 07:26:09;;;;;;;17.65;3.33;;;;;;;;;;6324909;22;20056;-86
2021/03/08 07:28:36;;;;;;;16.73;3.58;;;;;;;;;;6299160;22;20015;-87
2021/03/08 07:31:04;;;;;;;14.57;3.40;;;;;;;;;;6352498;22;20030;-85
2021/03/08 07:33:31;;;;;;;17.85;3.63;;;;;;;;;;6324515;22;20008;-85
2021/03/08 07:35:58;;;;;;;19.77;3.92;;;;;;;;;;6299400;22;20022;-84
2021/03/08 07:38:30;;;;;;;18.40;3.47;;;;;;;;;;6298685;22;20007;-84
2021/03/08 07:41:17;;;;;;;18.40;3.08;;;;;;;;;;6325045;22;20082;-84
2021/03/08 07:43:46;;;;;;;17.55;2.92;;;;;;;;;;6324084;22;20037;-84
2021/03/08 07:46:26;;;;;;;13.93;2.90;;;;;;;;;;6324496;22;20103;-85
2021/03/08 07:48:54;;;;;;;17.42;3.10;;;;;;;;;;6351842;22;20022;-84
2021/03/08 07:51:22;;;;;;;15.13;3.20;;;;;;;;;;6351915;22;20022;-87
2021/03/08 07:53:58;;;;;;;21.70;3.15;;;;;;;;;;6324689;22;20353;-86
2021/03/08 07:56:25;;;;;;;;;;;;;;;;;;6299405;22;20019;-86
2021/03/08 07:58:54;;;;;;;21.00;3.28;;;;;;;;;;6324636;22;19992;-86
2021/03/08 08:01:21;;;;;;;20.27;2.97;;;;;;;;;;6299245;22;20332;-86
2021/03/08 08:03:49;;;;;;;26.00;2.88;;;;;;;;;;6324401;22;20044;-86
2021/03/08 08:06:26;;;;;;;16.70;3.20;;;;;;;;;;6324431;22;20038;-84
2021/03/08 08:08:54;;;;;;;16.40;3.10;;;;;;;;;;6334330;22;20062;-84
2021/03/08 08:11:22;;;;;;;15.73;3.65;;;;;;;;;;6324430;22;20084;-84
2021/03/08 08:13:54;;;;;;;11.70;3.28;;;;;;;;;;6322085;22;20085;-83
2021/03/08 08:16:28;;;;;;;24.27;3.75;;;;;;;;;;6361910;22;20011;-84
2021/03/08 08:19:09;;;;;;;19.10;3.78;;;;;;;;;;6323925;22;20015;-85
2021/03/08 08:21:44;;;;;;;20.17;3.78;;;;;;;;;;6323165;22;20058;-84
2021/03/08 08:24:15;;;;;;;23.80;4.53;;;;;;;;;;6350803;22;20011;-83
2021/03/08 08:26:42;;;;;;;15.63;3.60;;;;;;;;;;6333511;22;20058;-83
2021/03/08 08:29:10;;;;;;;20.02;4.40;;;;;;;;;;6324041;22;20011;-85
2021/03/08 08:31:56;;;;;;;13.45;2.97;;;;;;;;;;6297787;22;20030;-83
2021/03/08 08:34:43;;;;;;;22.60;3.40;;;;;;;;;;6324084;22;20011;-84
2021/03/08 08:37:24;;;;;;;22.75;4.00;;;;;;;;;;6334311;22;20431;-84
2021/03/08 08:39:51;;;;;;;14.40;3.88;;;;;;;;;;6326144;22;20015;-83
2021/03/08 08:42:23;;;;;;;16.75;2.70;;;;;;;;;;6323533;22;20019;-84
2021/03/08 08:44:51;;;;;;;20.40;3.30;;;;;;;;;;6322752;22;20454;-83
2021/03/08 08:47:23;;;;;;;15.07;3.35;;;;;;;;;;6323573;22;20031;-83
2021/03/08 08:49:53;;;;;;;16.02;3.03;;;;;;;;;;6322839;22;20011;-83
2021/03/08 08:52:40;;;;;;;17.50;3.33;;;;;;;;;;6324832;22;20046;-95
2021/03/08 08:55:07;;;;;;;17.17;3.17;;;;;;;;;;6325639;22;20082;-93
2021/03/08 08:57:34;;;;;;;18.98;2.92;;;;;;;;;;6299293;22;20011;-93
2021/03/08 09:00:19;;;;;;;12.30;2.53;;;;;;;;;;6300001;22;20086;-93
2021/03/08 09:02:46;;;;;;;13.27;2.58;;;;;;;;;;6324725;22;20012;-95
2021/03/08 09:05:29;;;;;;;19.17;3.47;;;;;;;;;;6299576;22;20016;-94
2021/03/08 09:08:15;;;;;;;19.83;3.15;;;;;;;;;;6325430;22;20018;-94
2021/03/08 09:10:42;;;;;;;18.75;2.88;;;;;;;;;;6325181;22;20082;-95
2021/03/08 09:13:10;;;;;;;12.98;3.17;;;;;;;;;;6299099;22;20041;-93
2021/03/08 09:15:37;;;;;;;14.55;2.78;;;;;;;;;;6299353;22;20026;-93
2021/03/08 09:18:05;;;;;;;12.27;2.90;;;;;;;;;;6325224;22;20036;-95
2021/03/08 09:20:33;;;;;;;13.27;2.72;;;;;;;;;;6299600;22;20011;-94
2021/03/08 09:23:02;;;;;;;13.77;2.95;;;;;;;;;;6299775;22;20454;-93
2021/03/08 09:25:33;;;;;;;15.68;2.97;;;;;;;;;;6299238;22;20007;-91
2021/03/08 09:28:05;;;;;;;18.35;2.90;;;;;;;;;;6324155;22;20062;-93
2021/03/08 09:30:34;;;;;;;19.42;2.70;;;;;;;;;;6325339;22;20011;-94
2021/03/08 09:33:04;;;;;;;14.27;2.50;;;;;;;;;;6351763;22;20035;-93
2021/03/08 09:35:42;;;;;;;19.08;2.80;;;;;;;;;;6324423;22;20015;-93
2021/03/08 09:38:11;;;;;;;11.35;2.55;;;;;;;;;;6324763;22;20076;-94
2021/03/08 09:40:51;;;;;;;14.88;2.72;;;;;;;;;;6324428;22;20374;-93
2021/03/08 09:43:31;;;;;;;14.73;3.10;;;;;;;;;;6324418;22;20086;-93
2021/03/08 09:46:04;;;;;;;13.48;3.42;;;;;;;;;;6324322;22;20018;-93
2021/03/08 09:48:34;;;;;;;10.52;2.80;;;;;;;;;;6324662;22;20015;-94
2021/03/08 09:51:14;;;;;;;14.55;2.78;;;;;;;;;;6324014;22;20018;-94
2021/03/08 09:53:46;;;;;;;13.48;2.90;;;;;;;;;;6298546;22;20037;-95
2021/03/08 09:56:15;;;;;;;17.08;2.45;;;;;;;;;;6327051;22;20015;-87
2021/03/08 09:58:42;;;;;;;14.05;2.58;;;;;;;;;;6324595;22;20007;-92
2021/03/08 10:01:16;;;;;;;14.77;3.05;;;;;;;;;;6300139;22;20098;-93
2021/03/08 10:03:43;;;;;;;14.63;2.65;;;;;;;;;;6323870;22;20003;-91
2021/03/08 10:06:23;;;;;;;16.35;3.05;;;;;;;;;;6324913;22;20011;-91
2021/03/08 10:08:50;;;;;;;17.90;2.97;;;;;;;;;;6324721;22;20778;-93
2021/03/08 10:11:25;;;;;;;17.02;3.42;;;;;;;;;;6324251;22;20011;-94
2021/03/08 10:13:53;;;;;;;17.52;2.78;;;;;;;;;;6291945;22;20088;-93
2021/03/08 10:16:27;;;;;;;13.38;2.92;;;;;;;;;;6293411;22;20438;-95
2021/03/08 10:18:54;;;;;;;12.57;3.20;;;;;;;;;;6293091;22;20085;-95
2021/03/08 10:21:22;;;;;;;14.80;2.83;;;;;;;;;;6294441;22;20112;-96
2021/03/08 10:23:50;;;;;;;14.75;3.22;;;;;;;;;;6293582;22;20039;-94
2021/03/08 10:26:18;;;;;;;14.35;2.65;;;;;;;;;;6268369;22;20020;-94
2021/03/08 10:28:50;;;;;;;13.10;3.22;;;;;;;;;;6321338;22;20004;-94
2021/03/08 10:31:17;;;;;;;11.90;3.33;;;;;;;;;;6268724;22;20008;-95
2021/03/08 10:34:07;;;;;;;15.60;2.90;;;;;;;;;;6293369;22;20121;-95
2021/03/08 10:36:38;;;;;;;525.55;41.17;;;;;;;;;;6294222;22;20340;-95
2021/03/08 10:39:07;;;;;;;36.20;4.47;;;;;;;;;;6293660;22;20014;-95
2021/03/08 10:41:35;;;;;;;15.90;3.13;;;;;;;;;;6295068;22;20008;-94
2021/03/08 10:44:03;;;;;;;17.67;3.85;;;;;;;;;;6293079;22;20012;-88
2021/03/08 10:46:34;;;;;;;15.40;2.45;;;;;;;;;;6322330;22;20085;-91
2021/03/08 10:49:03;;;;;;;14.65;3.33;;;;;;;;;;6298223;22;20310;-93
2021/03/08 10:51:33;;;;;;;16.38;3.38;;;;;;;;;;6295712;22;20012;-96
2021/03/08 10:54:06;;;;;;;18.75;3.70;;;;;;;;;;6271573;22;20095;-95
2021/03/08 10:56:34;;;;;;;41.05;4.53;;;;;;;;;;6295342;22;20014;-95
2021/03/08 10:59:01;;;;;;;543.40;49.03;;;;;;;;;;6321438;22;20016;-96
2021/03/08 11:01:29;;;;;;;40.58;5.55;;;;;;;;;;6294921;22;20079;-96
2021/03/08 11:03:57;;;;;;;17.35;2.83;;;;;;;;;;6268934;22;20079;-90
2021/03/08 11:06:25;;;;;;;124.05;10.18;;;;;;;;;;6322119;22;20011;-94
2021/03/08 11:08:56;;;;;;;43.38;6.88;;;;;;;;;;6295144;22;20069;-93
2021/03/08 11:11:33;;;;;;;37.92;4.15;;;;;;;;;;6295740;22;20015;-91
2021/03/08 11:14:01;;;;;;;18.10;2.60;;;;;;;;;;6310409;22;20435;-94
2021/03/08 11:16:29;;;;;;;61.72;5.90;;;;;;;;;;6326130;22;20057;-93
2021/03/08 11:19:16;;;;;;;24.50;3.00;;;;;;;;;;6325573;22;20034;-93
2021/03/08 11:21:43;;;;;;;22.30;3.40;;;;;;;;;;6325916;22;20554;-92
2021/03/08 11:24:14;;;;;;;15.65;2.63;;;;;;;;;;6325237;22;20015;-90
2021/03/08 11:26:42;;;;;;;18.73;3.22;;;;;;;;;;6325900;22;20115;-94
2021/03/08 11:29:23;;;;;;;17.20;3.15;;;;;;;;;;6300132;22;20007;-92
2021/03/08 11:31:54;;;;;;;12.23;2.25;;;;;;;;;;6325143;22;20007;-93
2021/03/08 11:34:36;;;;;;;29.20;3.70;;;;;;;;;;6300960;22;20011;-93
2021/03/08 11:37:08;;;;;;;15.27;2.53;;;;;;;;;;6325866;22;20007;-95
2021/03/08 11:39:42;;;;;;;15.27;2.70;;;;;;;;;;6325623;22;20007;-93
2021/03/08 11:42:09;;;;;;;22.85;2.55;;;;;;;;;;6321109;22;20011;-88
2021/03/08 11:44:37;;;;;;;10.13;2.47;;;;;;;;;;6325911;22;20013;-93
2021/03/08 11:47:04;;;;;;;14.02;2.70;;;;;;;;;;6352378;22;20018;-90
2021/03/08 11:49:32;;;;;;;94.63;9.38;;;;;;;;;;6275709;22;20026;-92
2021/03/08 11:51:59;;;;;;;9.85;2.50;;;;;;;;;;6325699;22;20018;-95
2021/03/08 11:54:27;;;;;;;12.68;2.80;;;;;;;;;;6329838;22;20030;-93
2021/03/08 11:56:56;;;;;;;12.25;2.63;;;;;;;;;;6331931;22;20015;-96
2021/03/08 11:59:23;;;;;;;10.95;2.53;;;;;;;;;;6299622;22;20018;-92
2021/03/08 12:01:50;;;;;;;9.32;2.50;;;;;;;;;;6324917;22;20007;-94
2021/03/08 12:04:18;;;;;;;14.38;2.92;;;;;;;;;;6300509;22;20061;-96
2021/03/08 12:06:45;;;;;;;16.58;2.67;;;;;;;;;;6300084;22;20014;-95
2021/03/08 12:09:13;;;;;;;12.13;2.92;;;;;;;;;;6325029;22;20011;-94
2021/03/08 12:11:42;;;;;;;13.63;2.92;;;;;;;;;;6301692;22;20007;-94
2021/03/08 12:14:10;;;;;;;11.27;2.25;;;;;;;;;;6325170;22;20102;-96
2021/03/08 12:16:37;;;;;;;15.30;2.42;;;;;;;;;;6325644;22;20011;-94
2021/03/08 12:19:04;;;;;;;11.63;2.55;;;;;;;;;;6274523;22;20008;-94
2021/03/08 12:21:31;;;;;;;46.25;5.43;;;;;;;;;;6300005;22;20506;-95
2021/03/08 12:23:59;;;;;;;18.73;2.70;;;;;;;;;;6273910;22;20011;-95
2021/03/08 12:26:26;;;;;;;11.38;2.65;;;;;;;;;;6325459;22;20015;-95
2021/03/08 12:28:54;;;;;;;14.98;2.40;;;;;;;;;;6299582;22;20011;-96
2021/03/08 12:31:21;;;;;;;14.45;2.58;;;;;;;;;;6301362;22;20011;-96
2021/03/08 12:33:48;;;;;;;20.60;3.45;;;;;;;;;;6301394;22;20086;-96
2021/03/08 12:36:16;;;;;;;25.67;3.78;;;;;;;;;;6299870;22;20019;-95
2021/03/08 12:38:46;;;;;;;13.38;2.50;;;;;;;;;;6325177;22;20018;-95
2021/03/08 12:41:13;;;;;;;288.38;21.15;;;;;;;;;;6324871;22;20313;-96
2021/03/08 12:43:40;;;;;;;33.55;3.83;;;;;;;;;;6325509;22;20008;-95
2021/03/08 12:46:08;;;;;;;12.85;2.90;;;;;;;;;;6324132;22;20045;-95
2021/03/08 12:48:35;;;;;;;9.48;2.38;;;;;;;;;;6325128;22;20008;-96
2021/03/08 12:51:02;;;;;;;8.52;2.10;;;;;;;;;;6324968;22;20375;-95
2021/03/08 12:53:29;;;;;;;13.90;2.30;;;;;;;;;;6300206;22;20014;-95
2021/03/08 12:55:57;;;;;;;34.30;4.88;;;;;;;;;;6324781;22;20448;-94
2021/03/08 12:58:25;;;;;;;10.38;2.78;;;;;;;;;;6325394;22;20309;-95
2021/03/08 13:00:52;;;;;;;11.07;2.60;;;;;;;;;;6299451;22;20061;-95
2021/03/08 13:03:19;;;;;;;13.13;2.67;;;;;;;;;;6325808;22;20014;-96
2021/03/08 13:05:47;;;;;;;15.32;2.95;;;;;;;;;;6325440;22;20332;-96
2021/03/08 13:08:14;;;;;;;14.27;2.78;;;;;;;;;;6298938;22;20015;-96
2021/03/08 13:10:41;;;;;;;31.20;3.42;;;;;;;;;;6299183;22;20011;-96
2021/03/08 13:13:08;;;;;;;15.77;3.10;;;;;;;;;;6273752;22;20094;-96
2021/03/08 13:15:36;;;;;;;13.55;2.50;;;;;;;;;;6325779;22;20018;-96
2021/03/08 13:18:03;;;;;;;17.58;2.88;;;;;;;;;;6324894;22;20023;-95
2021/03/08 13:20:30;;;;;;;10.02;2.70;;;;;;;;;;6324793;22;20006;-96
2021/03/08 13:22:58;;;;;;;13.18;2.72;;;;;;;;;;6300501;22;20347;-95
2021/03/08 13:25:26;;;;;;;13.13;2.85;;;;;;;;;;6324889;22;20007;-94
2021/03/08 13:27:53;;;;;;;26.38;3.67;;;;;;;;;;6325297;22;20011;-95
2021/03/08 13:30:21;;;;;;;13.85;3.03;;;;;;;;;;6299365;22;20011;-94
2021/03/08 13:32:48;;;;;;;16.25;2.58;;;;;;;;;;6298796;22;20072;-94
2021/03/08 13:35:16;;;;;;;11.88;2.85;;;;;;;;;;6325167;22;20007;-93
2021/03/08 13:37:43;;;;;;;14.48;2.90;;;;;;;;;;6300553;22;20007;-95
2021/03/08 13:40:11;;;;;;;11.32;2.55;;;;;;;;;;6301031;22;20007;-95
2021/03/08 13:42:38;;;;;;;12.45;2.72;;;;;;;;;;6301044;22;20018;-90
2021/03/08 13:45:09;;;;;;;546.67;45.65;;;;;;;;;;6298348;22;20011;-93
2021/03/08 13:47:58;;;;;;;31.05;4.45;;;;;;;;;;6306677;22;20022;-96
2021/03/08 13:51:00;;;;;;;;;;;;;;;;;;;;;
2021/03/08 14:04:06;;;;;;;9.50;2.22;;;;;;;;;;6295837;22;20020;-96
2021/03/08 14:06:35;;;;;;;8.70;2.20;;;;;;;;;;6293616;23;20012;-96
2021/03/08 14:09:04;;;;;;;13.85;2.33;;;;;;;;;;6269791;23;20023;-96
2021/03/08 14:11:34;;;;;;;7.97;2.20;;;;;;;;;;6238900;23;20372;-96
2021/03/08 14:14:10;;;;;;;11.13;2.30;;;;;;;;;;6267352;23;20087;-96
2021/03/08 14:16:44;;;;;;;14.73;2.15;;;;;;;;;;6238829;23;20027;-96
2021/03/08 14:19:11;;;;;;;7.85;2.00;;;;;;;;;;6287652;23;20421;-92
2021/03/08 14:21:39;;;;;;;6.90;2.17;;;;;;;;;;6287636;23;20008;-94
2021/03/08 14:24:08;;;;;;;9.35;2.50;;;;;;;;;;6287362;23;20092;-96
2021/03/08 14:26:35;;;;;;;7.45;2.25;;;;;;;;;;6287439;23;20016;-93
2021/03/08 14:29:02;;;;;;;12.35;2.03;;;;;;;;;;6257986;23;20034;-90
2021/03/08 14:31:29;;;;;;;13.07;2.50;;;;;;;;;;6260157;23;20310;-91
2021/03/08 14:33:57;;;;;;;8.63;2.10;;;;;;;;;;6236326;23;20019;-92
2021/03/08 14:36:24;;;;;;;8.40;2.42;;;;;;;;;;6262264;23;20011;-94
2021/03/08 14:38:51;;;;;;;8.40;2.20;;;;;;;;;;6277003;23;20009;-93
2021/03/08 14:41:20;;;;;;;8.75;2.33;;;;;;;;;;6257958;23;20005;-94
2021/03/08 14:43:47;;;;;;;7.97;2.30;;;;;;;;;;6257202;23;20008;-96
2021/03/08 14:46:14;;;;;;;7.55;2.15;;;;;;;;;;6231550;23;20068;-93
2021/03/08 14:48:42;;;;;;;8.63;2.13;;;;;;;;;;6232555;23;20396;-93
2021/03/08 14:51:10;;;;;;;11.57;3.05;;;;;;;;;;6231955;23;20430;-94
2021/03/08 14:53:48;;;;;;;13.35;2.35;;;;;;;;;;6232048;23;20329;-91
2021/03/08 14:56:24;;;;;;;8.77;2.67;;;;;;;;;;6252131;23;20070;-87
2021/03/08 14:58:51;;;;;;;10.88;2.58;;;;;;;;;;6230406;23;20092;-85